METAR Data
IDs: Format: Raw Decoded Include TAF

Data at: 2151 UTC 24 Mar 2019

KPIL 242138Z AUTO 15017G24KT 9SM SCT019 SCT025 SCT035 26/19 A2998 RMK AO2 T02610194
KPIL 242116Z AUTO 13019KT 9SM BKN020 BKN025 OVC039 26/21 A2999 RMK AO2 T02610206
KPIL 242053Z AUTO 14018G26KT 9SM FEW022 SCT030 BKN039 26/20 A3000 RMK AO2 PK WND 14026/2044 SLP157 T02610200 58015
KPIL 241953Z AUTO 13018G26KT 9SM FEW024 OVC040 27/20 A3001 RMK AO2 PK WND 15026/1945 SLP163 T02720200
KPIL 241853Z AUTO 14021G25KT 9SM SCT022 SCT027 BKN040 26/20 A3004 RMK AO2 SLP171 T02610200
KPIL 241753Z AUTO 14017KT 9SM BKN021 BKN025 27/21 A3006 RMK AO2 SLP178 T02670206 10267 20206 58005
KPIL 241653Z AUTO 15014KT 8SM BKN019 BKN031 OVC041 25/20 A3008 RMK AO2 SLP185 T02500200
KPIL 241602Z AUTO 15014KT 8SM BKN016 OVC035 24/20 A3008 RMK AO2 T02440200
KPIL 241553Z AUTO 16010KT 8SM SCT014 OVC035 24/21 A3008 RMK AO2 SLP185 T02440206
KPIL 241525Z AUTO 16014G18KT 7SM SCT014 SCT020 OVC032 24/21 A3007 RMK AO2 T02390206
KPIL 241453Z AUTO 16011KT 7SM BKN010 OVC032 23/21 A3007 RMK AO2 SLP183 T02330206 53019
KPIL 241353Z AUTO 16008KT 6SM BR OVC031 22/20 A3005 RMK AO2 SLP174 T02170200
KPIL 241253Z AUTO 15007KT 5SM BR CLR 21/19 A3003 RMK AO2 SLP168 T02060194
KPIL 241153Z AUTO 15008KT 7SM BKN034 21/19 A3002 RMK AO2 SLP163 T02060194 10211 20194 55001
KPIL 241103Z AUTO 16007KT 7SM FEW018 FEW023 BKN031 21/19 A3000 RMK AO2 T02060194
KPIL 241053Z AUTO 16007KT 7SM FEW018 SCT023 BKN029 21/19 A2999 RMK AO2 SLP156 T02060194
KPIL 241034Z AUTO 16009KT 7SM SCT019 BKN027 21/19 A2999 RMK AO2 T02060189
KPIL 240953Z AUTO 14006KT 7SM SCT022 19/18 A3001 RMK AO2 SLP160 T01940178
KPIL 240931Z AUTO 15006KT 7SM BKN023 20/18 A3001 RMK AO2 T02000183
KPIL 240853Z AUTO 18004KT 8SM CLR 20/18 A3002 RMK AO2 SLP164 T02000183 56009
KPIL 240753Z AUTO 18006KT 9SM CLR 21/18 A3002 RMK AO2 SLP164 T02060183
KPIL 240653Z AUTO 16007KT 9SM CLR 21/18 A3003 RMK AO2 SLP169 T02060183
KPIL 240553Z AUTO 16010KT 9SM CLR 21/18 A3004 RMK AO2 SLP173 T02060183 10233 20206 402670189 58007
KPIL 240453Z AUTO 14009KT 9SM CLR 21/18 A3006 RMK AO2 SLP178 T02060183
KPIL 240353Z AUTO 13007KT 10SM FEW049 21/18 A3007 RMK AO2 SLP183 T02060178
KPIL 240253Z AUTO 13009KT 10SM OVC060 22/18 A3007 RMK AO2 SLP180 T02170183 53018
KPIL 240153Z AUTO 12007KT 10SM FEW047 OVC055 22/18 A3005 RMK AO2 SLP174 T02170183
KPIL 240053Z AUTO 12008KT 10SM OVC050 23/18 A3003 RMK AO2 SLP168 T02280183
KPIL 232353Z AUTO 14011KT 10SM OVC043 23/18 A3001 RMK AO2 SLP162 T02330178 10267 20233 53005
KPIL 232253Z AUTO 15017G25KT 10SM OVC037 24/17 A2999 RMK AO2 PK WND 15027/2156 SLP155 T02390167
KPIL 232153Z AUTO 14017G26KT 10SM SCT028 OVC035 26/18 A2999 RMK AO2 PK WND 14028/2105 SLP154 T02560178
KPIL 232053Z AUTO 13019KT 10SM BKN032 BKN043 25/17 A3000 RMK AO2 PK WND 13029/2034 SLP157 T02500172 58019
KPIL 231953Z AUTO 14016G27KT 10SM OVC033 26/17 A3002 RMK AO2 PK WND 13027/1946 SLP165 T02560172
KPIL 231853Z AUTO 13019G24KT 10SM OVC033 26/17 A3003 RMK AO2 SLP169 T02560172
KPIL 231753Z AUTO 14018G24KT 10SM FEW029 26/18 A3005 RMK AO2 SLP176 T02610178 10261 20194 58004
KPIL 231710Z AUTO 14018G24KT 10SM SCT028 BKN033 26/18 A3007 RMK AO2 T02610183
KPIL 231653Z AUTO 14015G23KT 10SM BKN028 OVC033 24/17 A3007 RMK AO2 SLP183 T02390172
KPIL 231631Z AUTO 15017G24KT 10SM BKN029 24/17 A3007 RMK AO2 T02440172
KPIL 231553Z AUTO 14018G25KT 10SM CLR 25/18 A3006 RMK AO2 SLP177 T02500178
KPIL 231453Z AUTO 14013KT 9SM CLR 23/18 A3007 RMK AO2 SLP180 T02330178 53019
KPIL 231353Z AUTO 15010KT 9SM SCT065 21/17 A3004 RMK AO2 SLP173 T02110172
KPIL 231253Z AUTO 15007KT 8SM CLR 19/17 A3003 RMK AO2 SLP167 T01940167
KPIL 231153Z AUTO 14009KT 9SM FEW070 19/17 A3001 RMK AO2 SLP161 T01940167 10206 20189 53002
KPIL 231053Z AUTO 13007KT 9SM CLR 19/17 A3000 RMK AO2 SLP158 T01890167
KPIL 230953Z AUTO 12007KT 9SM CLR 19/17 A3000 RMK AO2 SLP157 T01940167